ADDS METAR Data INFO
IDs: Format: Raw Decoded Include TAF

Data at: 0250 UTC 17 Jan 2018

KFQD 170235Z AUTO 00000KT 10SM SCT050 SCT120 06/M03 A3028 RMK AO2 T00551029
KFQD 170215Z AUTO 00000KT 10SM CLR 06/M03 A3028 RMK AO2 T00561030
KFQD 170155Z AUTO 22003KT 10SM CLR 06/M03 A3028 RMK AO2 T00571031
KFQD 170135Z AUTO 00000KT 10SM CLR 06/M03 A3028 RMK AO2 T00591032
KFQD 170115Z AUTO 21003KT 10SM CLR 06/M03 A3029 RMK AO2 T00601032
KFQD 170055Z AUTO 22003KT 10SM CLR 06/M03 A3029 RMK AO2 T00601032
KFQD 170035Z AUTO 00000KT 10SM SCT100 06/M03 A3029 RMK AO2 T00621032
KFQD 170015Z AUTO 20004KT 10SM BKN090 06/M03 A3029 RMK AO2 T00641032
KFQD 162355Z AUTO 19004KT 10SM OVC090 07/M03 A3029 RMK AO2 T00661032 10085 20043
KFQD 162335Z AUTO 20006KT 10SM BKN080 OVC100 07/M03 A3029 RMK AO2 T00681033
KFQD 162315Z AUTO 20005KT 10SM OVC090 07/M03 A3029 RMK AO2 T00691034
KFQD 162255Z AUTO 18005KT 10SM OVC090 07/M03 A3028 RMK AO2 T00691033
KFQD 162235Z AUTO 19005KT 10SM OVC100 07/M03 A3029 RMK AO2 T00721035
KFQD 162215Z AUTO 20006KT 10SM OVC100 08/M03 A3029 RMK AO2 T00751035
KFQD 162155Z AUTO 21003KT 10SM OVC100 08/M04 A3030 RMK AO2 T00781036
KFQD 162135Z AUTO 20005KT 10SM BKN100 08/M04 A3030 RMK AO2 T00801038
KFQD 162115Z AUTO 20006KT 10SM SCT100 08/M04 A3030 RMK AO2 T00811039
KFQD 162055Z AUTO 19008G15KT 10SM CLR 08/M04 A3030 RMK AO2 T00821040
KFQD 162035Z AUTO 19007KT 10SM CLR 08/M04 A3030 RMK AO2 T00801042
KFQD 162015Z AUTO 19009KT 10SM CLR 08/M04 A3030 RMK AO2 T00831042
KFQD 161955Z AUTO 18005KT 10SM CLR 08/M04 A3031 RMK AO2 T00761045
KFQD 161935Z AUTO 19003KT 10SM CLR 08/M05 A3031 RMK AO2 T00751049
KFQD 161915Z AUTO 21008KT 10SM CLR 07/M05 A3032 RMK AO2 T00731046
KFQD 161855Z AUTO 21003KT 10SM CLR 06/M05 A3033 RMK AO2 T00601049
KFQD 161815Z AUTO 20003KT 10SM CLR 05/M05 A3034 RMK AO2 T00461055
KFQD 161755Z AUTO 17006KT 10SM CLR 05/M06 A3036 RMK AO2 T00451056 10046 21075
KFQD 161735Z AUTO 21003KT 10SM CLR 04/M06 A3038 RMK AO2 T00421056
KFQD 161715Z AUTO 18006KT 10SM CLR 04/M06 A3039 RMK AO2 T00401061
KFQD 161655Z AUTO 15005KT 10SM CLR 04/M06 A3040 RMK AO2 T00351062
KFQD 161635Z AUTO 20004KT 10SM CLR 03/M06 A3042 RMK AO2 T00251061
KFQD 161615Z AUTO 15003KT 10SM CLR 02/M07 A3043 RMK AO2 T00201068
KFQD 161555Z AUTO 00000KT 10SM CLR 01/M07 A3044 RMK AO2 T00141075
KFQD 161535Z AUTO 00000KT 10SM CLR 01/M07 A3044 RMK AO2 T00141072
KFQD 161515Z AUTO 00000KT 10SM CLR 00/M07 A3044 RMK AO2 T00001071
KFQD 161455Z AUTO 00000KT 10SM CLR M01/M07 A3044 RMK AO2 T10101072
KFQD 161435Z AUTO 00000KT 10SM CLR M01/M06 A3043 RMK AO2 T10111056
KFQD 161415Z AUTO 00000KT 10SM CLR M03/M06 A3043 RMK AO2 T10281058
KFQD 161355Z AUTO 00000KT 10SM CLR M04/M06 A3043 RMK AO2 T10431065
KFQD 161335Z AUTO 00000KT 10SM CLR M05/M07 A3041 RMK AO2 T10521071
KFQD 161315Z AUTO 00000KT 10SM CLR M07/M08 A3041 RMK AO2 T10671076
KFQD 161255Z AUTO 00000KT 10SM CLR M07/M08 A3041 RMK AO2 T10701081
KFQD 161235Z AUTO 00000KT 10SM CLR M07/M08 A3041 RMK AO2 T10731085
KFQD 161215Z AUTO 00000KT 10SM CLR M07/M08 A3040 RMK AO2 T10691076
KFQD 161155Z AUTO 00000KT 10SM CLR M07/M08 A3041 RMK AO2 T10741076 11048 21075
KFQD 161135Z AUTO 33003KT 10SM CLR M07/M08 A3041 RMK AO2 T10721076
KFQD 161115Z AUTO 00000KT 10SM CLR M07/M08 A3040 RMK AO2 T10721077
KFQD 161055Z AUTO 00000KT 10SM CLR M06/M08 A3040 RMK AO2 T10651076
KFQD 161035Z AUTO 00000KT 10SM CLR M07/M07 A3040 RMK AO2 T10701075
KFQD 161015Z AUTO 00000KT 10SM CLR M07/M08 A3040 RMK AO2 T10701076
KFQD 160955Z AUTO 00000KT 10SM CLR M07/M07 A3039 RMK AO2 T10681072
KFQD 160935Z AUTO 00000KT 10SM CLR M07/M07 A3040 RMK AO2 T10681075
KFQD 160915Z AUTO 00000KT 10SM CLR M07/M08 A3041 RMK AO2 T10671076
KFQD 160855Z AUTO 00000KT 10SM CLR M07/M08 A3041 RMK AO2 T10711076
KFQD 160835Z AUTO 00000KT 10SM CLR M07/M07 A3041 RMK AO2 T10671073
KFQD 160815Z AUTO 00000KT 10SM CLR M06/M08 A3042 RMK AO2 T10631076
KFQD 160755Z AUTO 00000KT 10SM CLR M06/M07 A3042 RMK AO2 T10601075
KFQD 160735Z AUTO 00000KT 10SM CLR M05/M08 A3043 RMK AO2 T10551079
KFQD 160715Z AUTO 00000KT 10SM CLR M05/M08 A3043 RMK AO2 T10551082
KFQD 160655Z AUTO 00000KT 10SM CLR M05/M07 A3043 RMK AO2 T10551074
KFQD 160635Z AUTO 00000KT 10SM CLR M05/M07 A3043 RMK AO2 T10531074
KFQD 160615Z AUTO 00000KT 10SM CLR M05/M08 A3043 RMK AO2 T10491080
KFQD 160555Z AUTO 00000KT 10SM CLR M05/M07 A3043 RMK AO2 T10511075 10009 21053 400371082
KFQD 160535Z AUTO 32003KT 10SM CLR M05/M08 A3044 RMK AO2 T10471080
KFQD 160515Z AUTO 00000KT 10SM CLR M04/M08 A3044 RMK AO2 T10411084
KFQD 160455Z AUTO 00000KT 10SM CLR M03/M09 A3044 RMK AO2 T10331087
KFQD 160435Z AUTO 00000KT 10SM CLR M04/M08 A3044 RMK AO2 T10421080
KFQD 160415Z AUTO 00000KT 10SM CLR M04/M08 A3045 RMK AO2 T10371079
KFQD 160355Z AUTO 00000KT 10SM CLR M04/M08 A3044 RMK AO2 T10371080
KFQD 160335Z AUTO 00000KT 10SM CLR M03/M08 A3045 RMK AO2 T10351081
KFQD 160315Z AUTO 00000KT 10SM CLR M03/M08 A3045 RMK AO2 T10321082
KFQD 160255Z AUTO 00000KT 10SM CLR M03/M09 A3044 RMK AO2 T10301086
KFQD 160235Z AUTO 00000KT 10SM CLR M03/M08 A3044 RMK AO2 T10311084
KFQD 160215Z AUTO 00000KT 10SM CLR M02/M09 A3043 RMK AO2 T10251091
KFQD 160155Z AUTO 00000KT 10SM CLR M01/M09 A3042 RMK AO2 T10151092
KFQD 160135Z AUTO 00000KT 10SM CLR M02/M09 A3042 RMK AO2 T10171092
KFQD 160115Z AUTO 00000KT 10SM CLR M01/M09 A3042 RMK AO2 T10101093
KFQD 160055Z AUTO 11004KT 10SM CLR M01/M09 A3041 RMK AO2 T10121094
KFQD 160035Z AUTO 00000KT 10SM CLR 00/M09 A3041 RMK AO2 T10031092
KFQD 160015Z AUTO 00000KT 10SM CLR M01/M09 A3041 RMK AO2 T10061092
KFQD 152355Z AUTO 00000KT 10SM CLR 00/M10 A3041 RMK AO2 T00011100 10037 20001
KFQD 152335Z AUTO 00000KT 10SM CLR 01/M10 A3041 RMK AO2 T00061098
KFQD 152315Z AUTO 00000KT 10SM CLR 01/M10 A3041 RMK AO2 T00111099
KFQD 152255Z AUTO 00000KT 10SM CLR 02/M10 A3041 RMK AO2 T00161100
KFQD 152235Z AUTO 00000KT 10SM CLR 02/M10 A3041 RMK AO2 T00201103
KFQD 152215Z AUTO 23003KT 10SM CLR 02/M10 A3040 RMK AO2 T00231100
KFQD 152155Z AUTO 19004KT 10SM CLR 03/M10 A3040 RMK AO2 T00291097
KFQD 152135Z AUTO 21003KT 10SM CLR 03/M10 A3040 RMK AO2 T00311096
KFQD 152115Z AUTO 17003KT 10SM CLR 03/M10 A3040 RMK AO2 T00311098
KFQD 152055Z AUTO 19003KT 10SM CLR 03/M10 A3040 RMK AO2 T00301098
KFQD 152035Z AUTO 16005KT 10SM CLR 03/M10 A3040 RMK AO2 T00291099
KFQD 152015Z AUTO 17004KT 10SM CLR 03/M10 A3039 RMK AO2 T00301100
KFQD 151955Z AUTO 21003KT 10SM CLR 02/M10 A3040 RMK AO2 T00241103
KFQD 151935Z AUTO 18006KT 10SM CLR 03/M10 A3041 RMK AO2 T00261103
KFQD 151915Z AUTO 19004KT 10SM CLR 02/M11 A3041 RMK AO2 T00211106
KFQD 151855Z AUTO 04003KT 10SM CLR 02/M11 A3041 RMK AO2 T00171106
KFQD 151835Z AUTO 15004KT 10SM CLR 01/M11 A3042 RMK AO2 T00101110
KFQD 151815Z AUTO 21003KT 10SM CLR 01/M11 A3044 RMK AO2 T00131109
KFQD 151755Z AUTO 00000KT 10SM CLR 01/M12 A3044 RMK AO2 T00051116 10005 21082
KFQD 151735Z AUTO 04003KT 10SM CLR 00/M12 A3046 RMK AO2 T00021119
KFQD 151715Z AUTO 00000KT 10SM CLR 00/M12 A3048 RMK AO2 T10041120
KFQD 151655Z AUTO 00000KT 10SM CLR M01/M12 A3050 RMK AO2 T10081120
KFQD 151635Z AUTO 00000KT 10SM CLR M01/M12 A3051 RMK AO2 T10151122
KFQD 151615Z AUTO 18005KT 10SM CLR M02/M12 A3051 RMK AO2 T10191122
KFQD 151555Z AUTO 00000KT 10SM CLR M01/M13 A3053 RMK AO2 T10151130
KFQD 151535Z AUTO 08003KT 10SM CLR M02/M13 A3053 RMK AO2 T10211128
KFQD 151515Z AUTO 00000KT 10SM CLR M03/M12 A3053 RMK AO2 T10291122
KFQD 151455Z AUTO 00000KT 10SM SCT100 M04/M12 A3054 RMK AO2 T10421123